sensor_id;sensor_type;location;lat;lon;timestamp;pressure;altitude;pressure_sealevel;temperature;humidity
35918;BME280;22011;59.912;30.300;2024-03-29T00:01:37;99872.69;;;11.07;46.75
35918;BME280;22011;59.912;30.300;2024-03-29T00:04:04;99877.84;;;11.09;46.62
35918;BME280;22011;59.912;30.300;2024-03-29T00:06:31;99876.19;;;11.08;47.52
35918;BME280;22011;59.912;30.300;2024-03-29T00:08:58;99864.50;;;11.09;46.83
35918;BME280;22011;59.912;30.300;2024-03-29T00:11:24;99860.19;;;11.08;46.50
35918;BME280;22011;59.912;30.300;2024-03-29T00:13:52;99864.94;;;11.12;46.80
35918;BME280;22011;59.912;30.300;2024-03-29T00:16:19;99864.50;;;11.09;47.60
35918;BME280;22011;59.912;30.300;2024-03-29T00:18:45;99858.09;;;11.03;47.53
35918;BME280;22011;59.912;30.300;2024-03-29T00:21:12;99846.59;;;11.03;47.19
35918;BME280;22011;59.912;30.300;2024-03-29T00:23:39;99853.78;;;11.02;46.76
35918;BME280;22011;59.912;30.300;2024-03-29T00:26:05;99845.59;;;11.04;46.79
35918;BME280;22011;59.912;30.300;2024-03-29T00:28:32;99835.75;;;11.04;46.56
35918;BME280;22011;59.912;30.300;2024-03-29T00:31:00;99840.50;;;11.09;47.02
35918;BME280;22011;59.912;30.300;2024-03-29T00:33:26;99828.56;;;11.05;46.44
35918;BME280;22011;59.912;30.300;2024-03-29T00:35:53;99817.66;;;11.00;46.84
35918;BME280;22011;59.912;30.300;2024-03-29T00:38:20;99824.66;;;11.01;46.85
35918;BME280;22011;59.912;30.300;2024-03-29T00:40:46;99812.34;;;11.00;46.53
35918;BME280;22011;59.912;30.300;2024-03-29T00:43:13;99800.03;;;10.99;46.79
35918;BME280;22011;59.912;30.300;2024-03-29T00:45:40;99813.53;;;10.97;46.74
35918;BME280;22011;59.912;30.300;2024-03-29T00:48:08;99808.66;;;11.01;46.80
35918;BME280;22011;59.912;30.300;2024-03-29T00:50:34;99799.19;;;10.98;46.62
35918;BME280;22011;59.912;30.300;2024-03-29T00:53:01;99795.69;;;10.98;46.04
35918;BME280;22011;59.912;30.300;2024-03-29T00:55:27;99797.72;;;10.96;46.17
35918;BME280;22011;59.912;30.300;2024-03-29T00:57:54;99785.63;;;10.93;46.13
35918;BME280;22011;59.912;30.300;2024-03-29T01:00:21;99784.53;;;10.88;46.27
35918;BME280;22011;59.912;30.300;2024-03-29T01:02:47;99780.97;;;10.80;46.28
35918;BME280;22011;59.912;30.300;2024-03-29T01:05:16;99782.63;;;10.81;46.92
35918;BME280;22011;59.912;30.300;2024-03-29T01:07:42;99779.09;;;10.74;46.50
35918;BME280;22011;59.912;30.300;2024-03-29T01:10:10;99777.81;;;10.70;46.63
35918;BME280;22011;59.912;30.300;2024-03-29T01:12:36;99780.22;;;10.65;47.14
35918;BME280;22011;59.912;30.300;2024-03-29T01:15:03;99778.75;;;10.63;46.97
35918;BME280;22011;59.912;30.300;2024-03-29T01:17:30;99776.09;;;10.63;46.97
35918;BME280;22011;59.912;30.300;2024-03-29T01:19:56;99771.41;;;10.65;46.63
35918;BME280;22011;59.912;30.300;2024-03-29T01:22:24;99766.06;;;10.65;47.02
35918;BME280;22011;59.912;30.300;2024-03-29T01:24:51;99763.34;;;10.58;46.76
35918;BME280;22011;59.912;30.300;2024-03-29T01:27:17;99759.22;;;10.56;46.67
35918;BME280;22011;59.912;30.300;2024-03-29T01:29:44;99758.00;;;10.58;46.48
35918;BME280;22011;59.912;30.300;2024-03-29T01:32:11;99755.53;;;10.57;47.11
35918;BME280;22011;59.912;30.300;2024-03-29T01:34:37;99752.25;;;10.55;46.99
35918;BME280;22011;59.912;30.300;2024-03-29T01:37:04;99747.09;;;10.53;46.85
35918;BME280;22011;59.912;30.300;2024-03-29T01:39:32;99736.72;;;10.58;46.74
35918;BME280;22011;59.912;30.300;2024-03-29T01:41:58;99746.72;;;10.56;46.31
35918;BME280;22011;59.912;30.300;2024-03-29T01:44:25;99741.47;;;10.63;45.78
35918;BME280;22011;59.912;30.300;2024-03-29T01:46:53;99732.00;;;10.60;46.05
35918;BME280;22011;59.912;30.300;2024-03-29T01:49:20;99736.06;;;10.56;46.15
35918;BME280;22011;59.912;30.300;2024-03-29T01:51:48;99732.78;;;10.54;46.18
35918;BME280;22011;59.912;30.300;2024-03-29T01:54:17;99727.81;;;10.51;46.81
35918;BME280;22011;59.912;30.300;2024-03-29T01:56:46;99733.22;;;10.58;46.03
35918;BME280;22011;59.912;30.300;2024-03-29T01:59:16;99722.00;;;10.62;45.52
35918;BME280;22011;59.912;30.300;2024-03-29T02:01:44;99716.66;;;10.62;45.63
35918;BME280;22011;59.912;30.300;2024-03-29T02:04:12;99711.09;;;10.57;45.50
35918;BME280;22011;59.912;30.300;2024-03-29T02:06:40;99711.09;;;10.57;45.80
35918;BME280;22011;59.912;30.300;2024-03-29T02:09:08;99705.13;;;10.55;45.44
35918;BME280;22011;59.912;30.300;2024-03-29T02:11:35;99712.28;;;10.55;45.40
35918;BME280;22011;59.912;30.300;2024-03-29T02:14:05;99710.25;;;10.57;46.13
35918;BME280;22011;59.912;30.300;2024-03-29T02:16:33;99710.63;;;10.54;45.11
35918;BME280;22011;59.912;30.300;2024-03-29T02:19:00;99698.34;;;10.53;45.22
35918;BME280;22011;59.912;30.300;2024-03-29T02:21:28;99700.81;;;10.54;44.90
35918;BME280;22011;59.912;30.300;2024-03-29T02:24:00;99697.19;;;10.62;45.17
35918;BME280;22011;59.912;30.300;2024-03-29T02:26:28;99688.13;;;10.56;44.73
35918;BME280;22011;59.912;30.300;2024-03-29T02:28:58;99688.47;;;10.96;45.05
35918;BME280;22011;59.912;30.300;2024-03-29T02:31:26;99692.63;;;10.56;45.04
35918;BME280;22011;59.912;30.300;2024-03-29T02:33:53;99689.97;;;10.56;44.65
35918;BME280;22011;59.912;30.300;2024-03-29T02:36:21;99687.69;;;10.53;44.82
35918;BME280;22011;59.912;30.300;2024-03-29T02:38:49;99705.50;;;10.52;44.47
35918;BME280;22011;59.912;30.300;2024-03-29T02:41:18;99693.84;;;10.53;45.31
35918;BME280;22011;59.912;30.300;2024-03-29T02:43:45;99699.28;;;10.45;44.96
35918;BME280;22011;59.912;30.300;2024-03-29T02:46:13;99698.66;;;10.43;45.28
35918;BME280;22011;59.912;30.300;2024-03-29T02:48:41;99692.50;;;10.42;45.69
35918;BME280;22011;59.912;30.300;2024-03-29T02:51:09;99698.66;;;10.43;45.28
35918;BME280;22011;59.912;30.300;2024-03-29T02:53:35;99691.31;;;10.45;45.22
35918;BME280;22011;59.912;30.300;2024-03-29T02:56:04;99692.13;;;10.45;45.11
35918;BME280;22011;59.912;30.300;2024-03-29T02:58:34;99686.81;;;10.45;45.43
35918;BME280;22011;59.912;30.300;2024-03-29T03:01:06;99684.38;;;10.51;45.34
35918;BME280;22011;59.912;30.300;2024-03-29T03:03:33;99687.19;;;10.42;45.54
35918;BME280;22011;59.912;30.300;2024-03-29T03:06:00;99683.69;;;10.42;45.25
35918;BME280;22011;59.912;30.300;2024-03-29T03:08:27;99674.06;;;10.41;45.13
35918;BME280;22011;59.912;30.300;2024-03-29T03:11:12;99677.75;;;10.40;45.16
35918;BME280;22011;59.912;30.300;2024-03-29T03:13:41;99671.00;;;10.44;45.44
35918;BME280;22011;59.912;30.300;2024-03-29T03:16:08;99671.41;;;10.41;45.49
35918;BME280;22011;59.912;30.300;2024-03-29T03:18:36;99660.97;;;10.39;45.42
35918;BME280;22011;59.912;30.300;2024-03-29T03:21:03;99662.16;;;10.37;45.68
35918;BME280;22011;59.912;30.300;2024-03-29T03:23:31;99655.38;;;10.34;45.56
35918;BME280;22011;59.912;30.300;2024-03-29T03:26:00;99656.41;;;10.33;46.11
35918;BME280;22011;59.912;30.300;2024-03-29T03:28:26;99651.47;;;10.30;45.96
35918;BME280;22011;59.912;30.300;2024-03-29T03:30:55;99652.72;;;10.34;46.28
35918;BME280;22011;59.912;30.300;2024-03-29T03:33:22;99649.25;;;10.34;45.76
35918;BME280;22011;59.912;30.300;2024-03-29T03:35:50;99652.09;;;10.32;45.84
35918;BME280;22011;59.912;30.300;2024-03-29T03:38:17;99649.25;;;10.34;45.89
35918;BME280;22011;59.912;30.300;2024-03-29T03:40:44;99649.88;;;10.36;46.17
35918;BME280;22011;59.912;30.300;2024-03-29T03:43:11;99644.34;;;10.37;45.89
35918;BME280;22011;59.912;30.300;2024-03-29T03:45:39;99644.94;;;10.33;46.24
35918;BME280;22011;59.912;30.300;2024-03-29T03:48:09;99649.88;;;10.36;46.58
35918;BME280;22011;59.912;30.300;2024-03-29T03:50:37;99648.16;;;10.28;46.59
35918;BME280;22011;59.912;30.300;2024-03-29T03:53:04;99642.66;;;10.30;46.38
35918;BME280;22011;59.912;30.300;2024-03-29T03:55:35;99640.88;;;10.37;47.10
35918;BME280;22011;59.912;30.300;2024-03-29T03:58:02;99637.50;;;10.28;46.77
35918;BME280;22011;59.912;30.300;2024-03-29T04:00:30;99633.00;;;10.29;46.76
35918;BME280;22011;59.912;30.300;2024-03-29T04:02:56;99629.91;;;10.25;46.94
35918;BME280;22011;59.912;30.300;2024-03-29T04:05:26;99628.50;;;10.29;46.89
35918;BME280;22011;59.912;30.300;2024-03-29T04:07:52;99625.41;;;10.26;46.95
35918;BME280;22011;59.912;30.300;2024-03-29T04:10:20;99619.06;;;10.27;46.73
35918;BME280;22011;59.912;30.300;2024-03-29T04:12:46;99626.03;;;10.28;46.81
35918;BME280;22011;59.912;30.300;2024-03-29T04:15:14;99623.75;;;10.25;47.06
35918;BME280;22011;59.912;30.300;2024-03-29T04:17:40;99628.06;;;10.26;46.92
35918;BME280;22011;59.912;30.300;2024-03-29T04:20:09;99622.75;;;10.26;46.97
35918;BME280;22011;59.912;30.300;2024-03-29T04:22:37;99624.38;;;10.27;47.81
35918;BME280;22011;59.912;30.300;2024-03-29T04:25:05;99614.75;;;10.26;47.44
35918;BME280;22011;59.912;30.300;2024-03-29T04:27:31;99612.91;;;10.26;47.52
35918;BME280;22011;59.912;30.300;2024-03-29T04:29:59;99607.41;;;10.28;47.29
35918;BME280;22011;59.912;30.300;2024-03-29T04:32:25;99607.22;;;10.29;47.36
35918;BME280;22011;59.912;30.300;2024-03-29T04:34:53;99607.84;;;10.31;47.67
35918;BME280;22011;59.912;30.300;2024-03-29T04:37:20;99601.13;;;10.35;47.75
35918;BME280;22011;59.912;30.300;2024-03-29T04:39:49;99600.31;;;10.41;47.73
35918;BME280;22011;59.912;30.300;2024-03-29T04:42:16;99599.91;;;10.38;47.90
35918;BME280;22011;59.912;30.300;2024-03-29T04:44:44;99601.75;;;10.37;47.54
35918;BME280;22011;59.912;30.300;2024-03-29T04:47:12;99599.91;;;10.38;48.09
35918;BME280;22011;59.912;30.300;2024-03-29T04:49:39;99587.19;;;10.33;48.12
35918;BME280;22011;59.912;30.300;2024-03-29T04:52:07;99593.13;;;10.35;48.01
35918;BME280;22011;59.912;30.300;2024-03-29T04:54:35;99595.59;;;10.37;48.86
35918;BME280;22011;59.912;30.300;2024-03-29T04:57:05;99594.81;;;10.43;48.29
35918;BME280;22011;59.912;30.300;2024-03-29T04:59:33;99595.00;;;10.41;48.00
35918;BME280;22011;59.912;30.300;2024-03-29T05:02:01;99590.09;;;10.45;47.89
35918;BME280;22011;59.912;30.300;2024-03-29T05:04:29;99588.72;;;10.49;48.13
35918;BME280;22011;59.912;30.300;2024-03-29T05:06:57;99594.22;;;10.47;48.35
35918;BME280;22011;59.912;30.300;2024-03-29T05:09:26;99593.41;;;10.47;48.85
35918;BME280;22011;59.912;30.300;2024-03-29T05:11:53;99586.44;;;10.46;48.46
35918;BME280;22011;59.912;30.300;2024-03-29T05:14:22;99586.03;;;10.49;48.65
35918;BME280;22011;59.912;30.300;2024-03-29T05:16:50;99581.53;;;10.49;48.51
35918;BME280;22011;59.912;30.300;2024-03-29T05:19:19;99579.06;;;10.48;48.84
35918;BME280;22011;59.912;30.300;2024-03-29T05:21:46;99570.88;;;10.49;48.42
35918;BME280;22011;59.912;30.300;2024-03-29T05:24:14;99566.59;;;10.48;48.77
35918;BME280;22011;59.912;30.300;2024-03-29T05:26:41;99565.75;;;10.48;48.40
35918;BME280;22011;59.912;30.300;2024-03-29T05:29:09;99563.28;;;10.46;48.74
35918;BME280;22011;59.912;30.300;2024-03-29T05:31:38;99567.03;;;10.52;48.80
35918;BME280;22011;59.912;30.300;2024-03-29T05:34:06;99559.66;;;10.54;48.68
35918;BME280;22011;59.912;30.300;2024-03-29T05:36:33;99557.63;;;10.56;48.84
35918;BME280;22011;59.912;30.300;2024-03-29T05:39:02;99552.09;;;10.58;48.58
35918;BME280;22011;59.912;30.300;2024-03-29T05:41:30;99560.53;;;10.61;49.04
35918;BME280;22011;59.912;30.300;2024-03-29T05:43:58;99554.00;;;10.64;48.69
35918;BME280;22011;59.912;30.300;2024-03-29T05:46:25;99556.06;;;10.68;48.97
35918;BME280;22011;59.912;30.300;2024-03-29T05:48:54;99550.16;;;10.73;49.25
35918;BME280;22011;59.912;30.300;2024-03-29T05:51:22;99554.47;;;10.74;48.64
35918;BME280;22011;59.912;30.300;2024-03-29T05:53:49;99553.88;;;10.78;48.82
35918;BME280;22011;59.912;30.300;2024-03-29T05:56:17;99553.09;;;10.85;48.51
35918;BME280;22011;59.912;30.300;2024-03-29T05:58:44;99550.44;;;10.85;48.91
35918;BME280;22011;59.912;30.300;2024-03-29T06:01:12;99552.50;;;10.89;48.67
35918;BME280;22011;59.912;30.300;2024-03-29T06:03:40;99547.84;;;10.98;48.68
35918;BME280;22011;59.912;30.300;2024-03-29T06:06:09;99547.69;;;11.06;48.43
35918;BME280;22011;59.912;30.300;2024-03-29T06:08:43;99538.00;;;10.98;48.52
35918;BME280;22011;59.912;30.300;2024-03-29T06:11:11;99539.22;;;10.96;48.33
35918;BME280;22011;59.912;30.300;2024-03-29T06:13:38;99541.25;;;10.94;48.66
35918;BME280;22011;59.912;30.300;2024-03-29T06:16:25;99535.34;;;10.98;48.70
35918;BME280;22011;59.912;30.300;2024-03-29T06:19:18;99537.22;;;11.04;48.44
35918;BME280;22011;59.912;30.300;2024-03-29T06:21:47;99532.72;;;11.11;49.52
35918;BME280;22011;59.912;30.300;2024-03-29T06:24:15;99530.25;;;11.10;48.43
35918;BME280;22011;59.912;30.300;2024-03-29T06:26:43;99530.28;;;11.17;48.35
35918;BME280;22011;59.912;30.300;2024-03-29T06:29:10;99524.59;;;11.26;48.61
35918;BME280;22011;59.912;30.300;2024-03-29T06:31:38;99518.47;;;11.32;48.13
35918;BME280;22011;59.912;30.300;2024-03-29T06:34:05;99519.31;;;11.39;48.14
35918;BME280;22011;59.912;30.300;2024-03-29T06:36:33;99523.59;;;11.47;48.29
35918;BME280;22011;59.912;30.300;2024-03-29T06:39:03;99526.28;;;11.54;48.24
35918;BME280;22011;59.912;30.300;2024-03-29T06:41:31;99526.91;;;11.56;48.17
35918;BME280;22011;59.912;30.300;2024-03-29T06:43:58;99525.06;;;11.56;48.12
35918;BME280;22011;59.912;30.300;2024-03-29T06:46:26;99520.97;;;11.54;48.55
35918;BME280;22011;59.912;30.300;2024-03-29T06:48:54;99529.19;;;11.59;48.18
35918;BME280;22011;59.912;30.300;2024-03-29T06:51:21;99514.41;;;11.63;48.33
35918;BME280;22011;59.912;30.300;2024-03-29T06:53:49;99519.56;;;11.71;47.95
35918;BME280;22011;59.912;30.300;2024-03-29T06:56:18;99521.03;;;11.80;48.20
35918;BME280;22011;59.912;30.300;2024-03-29T06:58:45;99513.44;;;11.77;47.59
35918;BME280;22011;59.912;30.300;2024-03-29T07:01:13;99513.25;;;11.78;47.74
35918;BME280;22011;59.912;30.300;2024-03-29T07:03:40;99507.50;;;11.82;48.24
35918;BME280;22011;59.912;30.300;2024-03-29T07:06:08;99512.84;;;11.82;48.55
35918;BME280;22011;59.912;30.300;2024-03-29T07:08:36;99513.25;;;11.85;48.39
35918;BME280;22011;59.912;30.300;2024-03-29T07:11:04;99510.59;;;11.85;48.12
35918;BME280;22011;59.912;30.300;2024-03-29T07:13:33;99517.75;;;11.85;49.01
35918;BME280;22011;59.912;30.300;2024-03-29T07:16:00;99506.88;;;11.86;48.35
35918;BME280;22011;59.912;30.300;2024-03-29T07:18:28;99504.22;;;11.93;48.30
35918;BME280;22011;59.912;30.300;2024-03-29T07:20:56;99500.94;;;12.04;48.20
35918;BME280;22011;59.912;30.300;2024-03-29T07:23:23;99504.63;;;12.09;48.76
35918;BME280;22011;59.912;30.300;2024-03-29T07:25:58;99504.22;;;12.32;48.71
35918;BME280;22011;59.912;30.300;2024-03-29T07:28:26;99500.72;;;12.32;47.96
35918;BME280;22011;59.912;30.300;2024-03-29T07:30:55;99498.66;;;12.47;48.42
35918;BME280;22011;59.912;30.300;2024-03-29T07:33:23;99501.06;;;12.68;47.11
35918;BME280;22011;59.912;30.300;2024-03-29T07:35:52;99499.97;;;12.83;46.91
35918;BME280;22011;59.912;30.300;2024-03-29T07:38:20;99496.66;;;12.94;46.87
35918;BME280;22011;59.912;30.300;2024-03-29T07:40:50;99491.06;;;13.02;46.41
35918;BME280;22011;59.912;30.300;2024-03-29T07:43:18;99492.94;;;13.01;45.97
35918;BME280;22011;59.912;30.300;2024-03-29T07:45:45;99482.66;;;12.98;46.47
35918;BME280;22011;59.912;30.300;2024-03-29T07:48:15;99491.88;;;13.09;46.34
35918;BME280;22011;59.912;30.300;2024-03-29T07:50:44;99488.78;;;13.12;46.36
35918;BME280;22011;59.912;30.300;2024-03-29T07:53:12;99487.13;;;13.18;46.02
35918;BME280;22011;59.912;30.300;2024-03-29T07:55:40;99483.44;;;13.19;46.05
35918;BME280;22011;59.912;30.300;2024-03-29T07:58:08;99476.00;;;13.14;46.67
35918;BME280;22011;59.912;30.300;2024-03-29T08:00:39;99472.34;;;13.02;47.34
35918;BME280;22011;59.912;30.300;2024-03-29T08:03:08;99473.88;;;12.85;46.94
35918;BME280;22011;59.912;30.300;2024-03-29T08:05:37;99472.84;;;12.86;47.35
35918;BME280;22011;59.912;30.300;2024-03-29T08:08:05;99467.06;;;12.89;47.43
35918;BME280;22011;59.912;30.300;2024-03-29T08:10:33;99473.22;;;12.89;47.55
35918;BME280;22011;59.912;30.300;2024-03-29T08:13:00;99468.69;;;12.96;47.37
35918;BME280;22011;59.912;30.300;2024-03-29T08:15:28;99473.81;;;12.98;47.47
35918;BME280;22011;59.912;30.300;2024-03-29T08:17:55;99464.16;;;12.97;47.01
35918;BME280;22011;59.912;30.300;2024-03-29T08:20:23;99468.28;;;12.93;47.43
35918;BME280;22011;59.912;30.300;2024-03-29T08:22:59;99470.47;;;13.09;47.93
35918;BME280;22011;59.912;30.300;2024-03-29T08:25:27;99463.34;;;12.96;47.40
35918;BME280;22011;59.912;30.300;2024-03-29T08:27:55;99469.94;;;12.87;47.69
35918;BME280;22011;59.912;30.300;2024-03-29T08:30:24;99457.81;;;12.91;47.27
35918;BME280;22011;59.912;30.300;2024-03-29T08:32:52;99459.22;;;12.94;47.56
35918;BME280;22011;59.912;30.300;2024-03-29T08:35:20;99458.22;;;12.88;47.72
35918;BME280;22011;59.912;30.300;2024-03-29T08:37:48;99453.69;;;12.89;47.77
35918;BME280;22011;59.912;30.300;2024-03-29T08:40:19;99450.38;;;13.00;48.05
35918;BME280;22011;59.912;30.300;2024-03-29T08:42:48;99448.09;;;13.03;47.38
35918;BME280;22011;59.912;30.300;2024-03-29T08:45:15;99437.34;;;13.10;47.42
35918;BME280;22011;59.912;30.300;2024-03-29T08:47:43;99435.06;;;13.20;47.16
35918;BME280;22011;59.912;30.300;2024-03-29T08:50:10;99430.69;;;13.32;46.66
35918;BME280;22011;59.912;30.300;2024-03-29T08:52:39;99436.97;;;13.45;46.58
35918;BME280;22011;59.912;30.300;2024-03-29T08:55:07;99426.44;;;13.50;47.06
35918;BME280;22011;59.912;30.300;2024-03-29T08:57:36;99429.88;;;13.57;47.03
35918;BME280;22011;59.912;30.300;2024-03-29T09:00:05;99436.59;;;13.66;46.34
35918;BME280;22011;59.912;30.300;2024-03-29T09:02:34;99433.50;;;13.69;46.18
35918;BME280;22011;59.912;30.300;2024-03-29T09:05:02;99428.44;;;13.54;46.49
35918;BME280;22011;59.912;30.300;2024-03-29T09:07:30;99426.38;;;13.56;46.41
35918;BME280;22011;59.912;30.300;2024-03-29T09:09:57;99422.06;;;13.55;46.58
35918;BME280;22011;59.912;30.300;2024-03-29T09:12:25;99413.78;;;13.63;46.71
35918;BME280;22011;59.912;30.300;2024-03-29T09:14:54;99416.81;;;13.67;46.65
35918;BME280;22011;59.912;30.300;2024-03-29T09:17:22;99416.06;;;13.60;46.61
35918;BME280;22011;59.912;30.300;2024-03-29T09:19:50;99408.69;;;13.55;46.73
35918;BME280;22011;59.912;30.300;2024-03-29T09:22:19;99404.97;;;13.56;46.68
35918;BME280;22011;59.912;30.300;2024-03-29T09:24:46;99405.78;;;13.57;46.75
35918;BME280;22011;59.912;30.300;2024-03-29T09:27:14;99414.84;;;13.56;46.73
35918;BME280;22011;59.912;30.300;2024-03-29T09:29:41;99414.84;;;13.56;46.86
35918;BME280;22011;59.912;30.300;2024-03-29T09:32:11;99410.31;;;13.56;47.45
35918;BME280;22011;59.912;30.300;2024-03-29T09:34:39;99412.47;;;13.48;47.49
35918;BME280;22011;59.912;30.300;2024-03-29T09:37:06;99416.41;;;13.45;47.43
35918;BME280;22011;59.912;30.300;2024-03-29T09:39:34;99413.72;;;13.45;47.85
35918;BME280;22011;59.912;30.300;2024-03-29T09:42:02;99413.94;;;13.44;48.92
35918;BME280;22011;59.912;30.300;2024-03-29T09:44:33;99413.06;;;13.50;49.63
35918;BME280;22011;59.912;30.300;2024-03-29T09:47:03;99410.91;;;13.33;50.13
35918;BME280;22011;59.912;30.300;2024-03-29T09:49:33;99410.56;;;13.23;51.45
35918;BME280;22011;59.912;30.300;2024-03-29T09:52:01;99411.75;;;13.59;50.48
35918;BME280;22011;59.912;30.300;2024-03-29T09:54:29;99406.91;;;13.11;51.48
35918;BME280;22011;59.912;30.300;2024-03-29T09:56:57;99405.69;;;13.07;52.08
35918;BME280;22011;59.912;30.300;2024-03-29T09:59:24;99406.72;;;13.06;52.74
35918;BME280;22011;59.912;30.300;2024-03-29T10:01:55;99405.06;;;13.12;54.43
35918;BME280;22011;59.912;30.300;2024-03-29T10:04:24;99408.94;;;13.16;53.73
35918;BME280;22011;59.912;30.300;2024-03-29T10:06:54;99403.81;;;13.21;51.89
35918;BME280;22011;59.912;30.300;2024-03-29T10:09:22;99406.66;;;13.26;51.64
35918;BME280;22011;59.912;30.300;2024-03-29T10:11:53;99397.97;;;13.30;51.39
35918;BME280;22011;59.912;30.300;2024-03-29T10:14:21;99402.91;;;13.33;50.83
35918;BME280;22011;59.912;30.300;2024-03-29T10:16:51;99400.41;;;13.38;51.55
35918;BME280;22011;59.912;30.300;2024-03-29T10:19:20;99409.19;;;13.46;51.22
35918;BME280;22011;59.912;30.300;2024-03-29T10:21:48;99405.69;;;13.45;50.29
35918;BME280;22011;59.912;30.300;2024-03-29T10:24:18;99411.66;;;13.47;51.55
35918;BME280;22011;59.912;30.300;2024-03-29T10:26:46;99403.50;;;13.35;52.94
35918;BME280;22011;59.912;30.300;2024-03-29T10:29:15;99403.16;;;13.25;52.44
35918;BME280;22011;59.912;30.300;2024-03-29T10:31:42;99390.00;;;13.24;52.69
35918;BME280;22011;59.912;30.300;2024-03-29T10:34:10;99392.06;;;13.22;53.39
35918;BME280;22011;59.912;30.300;2024-03-29T10:36:38;99395.56;;;13.22;52.51
35918;BME280;22011;59.912;30.300;2024-03-29T10:39:09;99397.97;;;13.30;53.28
35918;BME280;22011;59.912;30.300;2024-03-29T10:41:41;99400.44;;;13.32;52.17
35918;BME280;22011;59.912;30.300;2024-03-29T10:44:09;99397.75;;;13.32;52.21
35918;BME280;22011;59.912;30.300;2024-03-29T10:46:38;99387.44;;;13.35;51.95
35918;BME280;22011;59.912;30.300;2024-03-29T10:49:08;99392.75;;;13.42;52.12
35918;BME280;22011;59.912;30.300;2024-03-29T10:51:38;99386.31;;;13.50;51.10
35918;BME280;22011;59.912;30.300;2024-03-29T10:54:08;99383.94;;;13.60;50.84
35918;BME280;22011;59.912;30.300;2024-03-29T10:56:36;99380.63;;;13.64;50.64
35918;BME280;22011;59.912;30.300;2024-03-29T10:59:10;99379.25;;;13.80;50.69
35918;BME280;22011;59.912;30.300;2024-03-29T11:01:41;99380.59;;;13.89;50.62
35918;BME280;22011;59.912;30.300;2024-03-29T11:04:22;99372.22;;;14.04;50.77
35918;BME280;22011;59.912;30.300;2024-03-29T11:06:55;99363.91;;;14.12;49.98
35918;BME280;22011;59.912;30.300;2024-03-29T11:09:28;99366.88;;;14.22;49.16
35918;BME280;22011;59.912;30.300;2024-03-29T11:11:58;99365.84;;;14.23;48.71
35918;BME280;22011;59.912;30.300;2024-03-29T11:14:35;99363.41;;;14.40;50.14
35918;BME280;22011;59.912;30.300;2024-03-29T11:17:04;99357.59;;;14.25;50.26
35918;BME280;22011;59.912;30.300;2024-03-29T11:19:32;99354.25;;;14.29;49.39
35918;BME280;22011;59.912;30.300;2024-03-29T11:21:59;99352.53;;;14.35;48.52
35918;BME280;22011;59.912;30.300;2024-03-29T11:24:27;99355.66;;;14.32;50.58
35918;BME280;22011;59.912;30.300;2024-03-29T11:26:55;99348.28;;;14.27;50.45
35918;BME280;22011;59.912;30.300;2024-03-29T11:29:23;99347.47;;;14.27;51.38
35918;BME280;22011;59.912;30.300;2024-03-29T11:31:57;99347.50;;;14.45;51.58
35918;BME280;22011;59.912;30.300;2024-03-29T11:34:25;99344.34;;;14.30;50.84
35918;BME280;22011;59.912;30.300;2024-03-29T11:37:06;99350.53;;;14.49;50.97
35918;BME280;22011;59.912;30.300;2024-03-29T11:39:34;99349.34;;;14.45;49.24
35918;BME280;22011;59.912;30.300;2024-03-29T11:42:02;99346.81;;;14.50;50.01
35918;BME280;22011;59.912;30.300;2024-03-29T11:44:29;99345.09;;;14.55;50.07
35918;BME280;22011;59.912;30.300;2024-03-29T11:46:58;99327.09;;;14.74;49.23
35918;BME280;22011;59.912;30.300;2024-03-29T11:49:26;99328.66;;;14.82;48.72
35918;BME280;22011;59.912;30.300;2024-03-29T11:52:02;99334.31;;;15.03;49.40
35918;BME280;22011;59.912;30.300;2024-03-29T11:54:37;99328.16;;;15.15;48.85
35918;BME280;22011;59.912;30.300;2024-03-29T11:57:05;99315.22;;;15.12;47.73
35918;BME280;22011;59.912;30.300;2024-03-29T11:59:32;99321.97;;;15.14;47.22
35918;BME280;22011;59.912;30.300;2024-03-29T12:02:02;99315.47;;;15.22;47.27
35918;BME280;22011;59.912;30.300;2024-03-29T12:04:29;99306.25;;;15.18;47.92
35918;BME280;22011;59.912;30.300;2024-03-29T12:06:57;99310.53;;;15.07;48.14
35918;BME280;22011;59.912;30.300;2024-03-29T12:09:25;99308.81;;;15.13;46.96
35918;BME280;22011;59.912;30.300;2024-03-29T12:11:55;99310.78;;;15.17;47.40
35918;BME280;22011;59.912;30.300;2024-03-29T12:14:26;99302.06;;;15.22;47.44
35918;BME280;22011;59.912;30.300;2024-03-29T12:16:55;99299.13;;;15.23;47.96
35918;BME280;22011;59.912;30.300;2024-03-29T12:19:25;99299.03;;;15.30;48.03
35918;BME280;22011;59.912;30.300;2024-03-29T12:21:55;99295.19;;;15.37;47.33
35918;BME280;22011;59.912;30.300;2024-03-29T12:24:22;99291.81;;;15.42;47.46
35918;BME280;22011;59.912;30.300;2024-03-29T12:26:50;99287.63;;;15.46;47.45
35918;BME280;22011;59.912;30.300;2024-03-29T12:29:18;99282.59;;;15.50;47.60
35918;BME280;22011;59.912;30.300;2024-03-29T12:31:56;99290.66;;;15.73;47.90
35918;BME280;22011;59.912;30.300;2024-03-29T12:34:25;99289.13;;;15.65;47.31
35918;BME280;22011;59.912;30.300;2024-03-29T12:36:54;99288.44;;;15.70;47.18
35918;BME280;22011;59.912;30.300;2024-03-29T12:39:21;99295.31;;;15.78;46.22
35918;BME280;22011;59.912;30.300;2024-03-29T12:41:51;99286.56;;;15.82;46.40
35918;BME280;22011;59.912;30.300;2024-03-29T12:44:23;99287.72;;;15.86;46.15
35918;BME280;22011;59.912;30.300;2024-03-29T12:46:50;99289.94;;;15.89;45.96
35918;BME280;22011;59.912;30.300;2024-03-29T12:49:18;99288.91;;;15.90;46.01
35918;BME280;22011;59.912;30.300;2024-03-29T12:51:47;99294.72;;;15.99;45.87
35918;BME280;22011;59.912;30.300;2024-03-29T12:54:15;99299.03;;;16.00;45.72
35918;BME280;22011;59.912;30.300;2024-03-29T12:56:44;99293.78;;;15.93;46.07